sensor_id;sensor_type;location;lat;lon;timestamp;pressure;altitude;pressure_sealevel;temperature;humidity
4972;BME280;2501;51.214;6.768;2023-04-30T00:00:59;101933.00;;;9.52;80.18
4972;BME280;2501;51.214;6.768;2023-04-30T00:03:28;101931.13;;;9.48;80.66
4972;BME280;2501;51.214;6.768;2023-04-30T00:05:57;101928.91;;;9.31;81.16
4972;BME280;2501;51.214;6.768;2023-04-30T00:08:25;101931.78;;;9.40;81.42
4972;BME280;2501;51.214;6.768;2023-04-30T00:10:54;101933.94;;;9.25;81.79
4972;BME280;2501;51.214;6.768;2023-04-30T00:13:23;101938.06;;;9.17;82.46
4972;BME280;2501;51.214;6.768;2023-04-30T00:15:54;101940.22;;;9.30;82.59
4972;BME280;2501;51.214;6.768;2023-04-30T00:18:22;101943.94;;;9.10;83.04
4972;BME280;2501;51.214;6.768;2023-04-30T00:20:50;101934.50;;;9.15;83.15
4972;BME280;2501;51.214;6.768;2023-04-30T00:23:19;101933.69;;;9.16;83.21
4972;BME280;2501;51.214;6.768;2023-04-30T00:25:47;101941.75;;;9.24;83.61
4972;BME280;2501;51.214;6.768;2023-04-30T00:28:15;101947.72;;;9.20;83.93
4972;BME280;2501;51.214;6.768;2023-04-30T00:30:44;101949.75;;;9.01;84.47
4972;BME280;2501;51.214;6.768;2023-04-30T00:33:15;101953.31;;;9.03;84.42
4972;BME280;2501;51.214;6.768;2023-04-30T00:35:43;101951.28;;;8.93;84.77
4972;BME280;2501;51.214;6.768;2023-04-30T00:38:12;101955.75;;;8.97;85.15
4972;BME280;2501;51.214;6.768;2023-04-30T00:40:40;101951.00;;;8.86;85.34
4972;BME280;2501;51.214;6.768;2023-04-30T00:43:09;101954.94;;;8.98;85.38
4972;BME280;2501;51.214;6.768;2023-04-30T00:45:37;101959.91;;;8.91;85.68
4972;BME280;2501;51.214;6.768;2023-04-30T00:48:06;101957.53;;;8.98;85.43
4972;BME280;2501;51.214;6.768;2023-04-30T00:50:37;101958.44;;;8.72;86.41
4972;BME280;2501;51.214;6.768;2023-04-30T00:53:07;101959.06;;;8.92;86.62
4972;BME280;2501;51.214;6.768;2023-04-30T00:55:35;101960.91;;;8.94;86.11
4972;BME280;2501;51.214;6.768;2023-04-30T00:58:04;101957.44;;;8.95;86.06
4972;BME280;2501;51.214;6.768;2023-04-30T01:00:33;101955.81;;;8.72;86.42
4972;BME280;2501;51.214;6.768;2023-04-30T01:03:02;101960.19;;;8.73;87.39
4972;BME280;2501;51.214;6.768;2023-04-30T01:05:31;101954.56;;;8.88;86.90
4972;BME280;2501;51.214;6.768;2023-04-30T01:08:03;101956.25;;;8.86;86.57
4972;BME280;2501;51.214;6.768;2023-04-30T01:10:37;101955.19;;;8.79;86.79
4972;BME280;2501;51.214;6.768;2023-04-30T01:13:11;101958.75;;;8.81;86.77
4972;BME280;2501;51.214;6.768;2023-04-30T01:15:48;101956.34;;;8.62;87.49
4972;BME280;2501;51.214;6.768;2023-04-30T01:18:22;101950.47;;;8.69;87.85
4972;BME280;2501;51.214;6.768;2023-04-30T01:20:55;101948.84;;;8.72;87.67
4972;BME280;2501;51.214;6.768;2023-04-30T01:23:41;101946.53;;;8.82;87.39
4972;BME280;2501;51.214;6.768;2023-04-30T01:26:20;101948.06;;;8.75;87.89
4972;BME280;2501;51.214;6.768;2023-04-30T01:28:53;101957.59;;;8.73;87.53
4972;BME280;2501;51.214;6.768;2023-04-30T01:31:27;101949.63;;;8.70;87.64
4972;BME280;2501;51.214;6.768;2023-04-30T01:33:55;101953.84;;;8.65;88.04
4972;BME280;2501;51.214;6.768;2023-04-30T01:36:34;101950.97;;;8.57;88.22
4972;BME280;2501;51.214;6.768;2023-04-30T01:39:18;101955.81;;;8.45;88.98
4972;BME280;2501;51.214;6.768;2023-04-30T01:41:59;101951.53;;;8.49;89.21
4972;BME280;2501;51.214;6.768;2023-04-30T01:44:42;101955.16;;;8.52;89.87
4972;BME280;2501;51.214;6.768;2023-04-30T01:47:20;101954.25;;;8.52;90.12
4972;BME280;2501;51.214;6.768;2023-04-30T01:49:58;101955.28;;;8.31;90.37
4972;BME280;2501;51.214;6.768;2023-04-30T01:52:36;101957.47;;;8.19;91.30
4972;BME280;2501;51.214;6.768;2023-04-30T01:55:12;101958.09;;;8.36;92.26
4972;BME280;2501;51.214;6.768;2023-04-30T01:57:44;101950.03;;;8.31;91.66
4972;BME280;2501;51.214;6.768;2023-04-30T02:00:19;101952.91;;;8.37;90.46
4972;BME280;2501;51.214;6.768;2023-04-30T02:02:48;101946.56;;;8.31;89.84
4972;BME280;2501;51.214;6.768;2023-04-30T02:05:16;101954.97;;;8.22;90.40
4972;BME280;2501;51.214;6.768;2023-04-30T02:07:47;101948.53;;;8.36;90.41
4972;BME280;2501;51.214;6.768;2023-04-30T02:10:17;101944.63;;;8.51;89.30
4972;BME280;2501;51.214;6.768;2023-04-30T02:12:45;101947.25;;;8.51;89.01
4972;BME280;2501;51.214;6.768;2023-04-30T02:15:14;101947.06;;;8.45;88.84
4972;BME280;2501;51.214;6.768;2023-04-30T02:17:45;101952.47;;;8.51;88.71
4972;BME280;2501;51.214;6.768;2023-04-30T02:20:13;101952.53;;;8.27;89.29
4972;BME280;2501;51.214;6.768;2023-04-30T02:22:42;101955.09;;;8.25;89.55
4972;BME280;2501;51.214;6.768;2023-04-30T02:25:11;101953.78;;;8.13;90.07
4972;BME280;2501;51.214;6.768;2023-04-30T02:27:39;101948.19;;;8.27;91.02
4972;BME280;2501;51.214;6.768;2023-04-30T02:30:08;101946.19;;;8.44;90.10
4972;BME280;2501;51.214;6.768;2023-04-30T02:32:36;101951.66;;;8.52;89.19
4972;BME280;2501;51.214;6.768;2023-04-30T02:35:08;101951.69;;;8.53;88.89
4972;BME280;2501;51.214;6.768;2023-04-30T02:37:36;101955.47;;;8.36;89.21
4972;BME280;2501;51.214;6.768;2023-04-30T02:40:06;101958.97;;;8.36;90.16
4972;BME280;2501;51.214;6.768;2023-04-30T02:42:35;101961.44;;;8.32;91.66
4972;BME280;2501;51.214;6.768;2023-04-30T02:45:04;101956.63;;;8.20;92.89
4972;BME280;2501;51.214;6.768;2023-04-30T02:47:33;101958.19;;;8.14;93.93
4972;BME280;2501;51.214;6.768;2023-04-30T02:50:01;101956.22;;;8.08;95.13
4972;BME280;2501;51.214;6.768;2023-04-30T02:52:32;101953.31;;;8.00;95.61
4972;BME280;2501;51.214;6.768;2023-04-30T02:55:01;101948.84;;;7.96;96.23
4972;BME280;2501;51.214;6.768;2023-04-30T02:57:29;101954.56;;;7.86;96.61
4972;BME280;2501;51.214;6.768;2023-04-30T02:59:58;101956.81;;;7.76;97.12
4972;BME280;2501;51.214;6.768;2023-04-30T03:02:26;101955.13;;;7.78;97.63
4972;BME280;2501;51.214;6.768;2023-04-30T03:04:55;101953.06;;;7.69;97.94
4972;BME280;2501;51.214;6.768;2023-04-30T03:07:23;101957.16;;;7.62;98.66
4972;BME280;2501;51.214;6.768;2023-04-30T03:09:54;101948.13;;;7.53;98.95
4972;BME280;2501;51.214;6.768;2023-04-30T03:12:23;101947.50;;;7.84;99.59
4972;BME280;2501;51.214;6.768;2023-04-30T03:14:51;101953.44;;;7.80;99.53
4972;BME280;2501;51.214;6.768;2023-04-30T03:17:19;101946.72;;;7.86;98.54
4972;BME280;2501;51.214;6.768;2023-04-30T03:19:49;101951.13;;;7.87;98.03
4972;BME280;2501;51.214;6.768;2023-04-30T03:22:17;101957.94;;;7.84;98.09
4972;BME280;2501;51.214;6.768;2023-04-30T03:24:48;101958.47;;;7.74;98.58
4972;BME280;2501;51.214;6.768;2023-04-30T03:27:19;101958.44;;;7.50;99.47
4972;BME280;2501;51.214;6.768;2023-04-30T03:29:47;101950.41;;;7.44;100.00
4972;BME280;2501;51.214;6.768;2023-04-30T03:32:16;101954.75;;;7.45;100.00
4972;BME280;2501;51.214;6.768;2023-04-30T03:34:44;101952.16;;;7.45;100.00
4972;BME280;2501;51.214;6.768;2023-04-30T03:37:12;101951.94;;;7.39;100.00
4972;BME280;2501;51.214;6.768;2023-04-30T03:39:41;101961.41;;;7.37;100.00
4972;BME280;2501;51.214;6.768;2023-04-30T03:42:09;101959.69;;;7.15;100.00
4972;BME280;2501;51.214;6.768;2023-04-30T03:44:40;101954.97;;;7.27;100.00
4972;BME280;2501;51.214;6.768;2023-04-30T03:47:09;101958.41;;;7.26;100.00
4972;BME280;2501;51.214;6.768;2023-04-30T03:49:37;101959.25;;;7.25;100.00
4972;BME280;2501;51.214;6.768;2023-04-30T03:52:05;101964.09;;;7.16;100.00
4972;BME280;2501;51.214;6.768;2023-04-30T03:54:34;101961.25;;;7.10;100.00
4972;BME280;2501;51.214;6.768;2023-04-30T03:57:02;101968.41;;;7.15;100.00
4972;BME280;2501;51.214;6.768;2023-04-30T03:59:32;101963.50;;;7.23;100.00
4972;BME280;2501;51.214;6.768;2023-04-30T04:02:03;101958.16;;;7.20;100.00
4972;BME280;2501;51.214;6.768;2023-04-30T04:04:32;101962.06;;;7.31;100.00
4972;BME280;2501;51.214;6.768;2023-04-30T04:07:00;101961.03;;;7.26;100.00
4972;BME280;2501;51.214;6.768;2023-04-30T04:09:32;101959.00;;;7.19;100.00
4972;BME280;2501;51.214;6.768;2023-04-30T04:12:00;101964.56;;;7.28;100.00
4972;BME280;2501;51.214;6.768;2023-04-30T04:14:29;101965.16;;;7.21;100.00
4972;BME280;2501;51.214;6.768;2023-04-30T04:16:57;101969.38;;;7.17;100.00
4972;BME280;2501;51.214;6.768;2023-04-30T04:19:32;101961.59;;;7.19;100.00
4972;BME280;2501;51.214;6.768;2023-04-30T04:22:00;101964.22;;;7.19;100.00
4972;BME280;2501;51.214;6.768;2023-04-30T04:24:29;101960.78;;;7.20;100.00
4972;BME280;2501;51.214;6.768;2023-04-30T04:26:57;101956.13;;;7.13;100.00
4972;BME280;2501;51.214;6.768;2023-04-30T04:29:26;101955.09;;;7.08;100.00
4972;BME280;2501;51.214;6.768;2023-04-30T04:31:55;101961.31;;;6.89;100.00
4972;BME280;2501;51.214;6.768;2023-04-30T04:34:24;101972.16;;;6.99;100.00
4972;BME280;2501;51.214;6.768;2023-04-30T04:36:55;101965.75;;;7.14;100.00
4972;BME280;2501;51.214;6.768;2023-04-30T04:39:24;101971.75;;;7.33;100.00
4972;BME280;2501;51.214;6.768;2023-04-30T04:41:52;101974.59;;;7.17;100.00
4972;BME280;2501;51.214;6.768;2023-04-30T04:44:21;101975.34;;;7.15;100.00
4972;BME280;2501;51.214;6.768;2023-04-30T04:46:49;101973.34;;;7.08;100.00
4972;BME280;2501;51.214;6.768;2023-04-30T04:49:18;101978.72;;;7.12;100.00
4972;BME280;2501;51.214;6.768;2023-04-30T04:51:46;101976.25;;;7.15;100.00
4972;BME280;2501;51.214;6.768;2023-04-30T04:54:17;101985.41;;;6.83;100.00
4972;BME280;2501;51.214;6.768;2023-04-30T04:56:46;101985.31;;;7.03;100.00
4972;BME280;2501;51.214;6.768;2023-04-30T04:59:15;101989.28;;;7.15;100.00
4972;BME280;2501;51.214;6.768;2023-04-30T05:01:44;101989.59;;;7.23;100.00
4972;BME280;2501;51.214;6.768;2023-04-30T05:04:12;101984.22;;;7.41;100.00
4972;BME280;2501;51.214;6.768;2023-04-30T05:06:41;101985.09;;;7.41;100.00
4972;BME280;2501;51.214;6.768;2023-04-30T05:09:09;101990.47;;;7.46;100.00
4972;BME280;2501;51.214;6.768;2023-04-30T05:11:40;101992.03;;;7.41;100.00
4972;BME280;2501;51.214;6.768;2023-04-30T05:14:10;101994.34;;;7.55;100.00
4972;BME280;2501;51.214;6.768;2023-04-30T05:16:39;101999.56;;;7.55;99.31
4972;BME280;2501;51.214;6.768;2023-04-30T05:19:07;101994.03;;;7.70;98.07
4972;BME280;2501;51.214;6.768;2023-04-30T05:21:36;101996.94;;;7.55;97.65
4972;BME280;2501;51.214;6.768;2023-04-30T05:24:05;102004.47;;;7.70;97.16
4972;BME280;2501;51.214;6.768;2023-04-30T05:26:33;102005.75;;;7.81;96.09
4972;BME280;2501;51.214;6.768;2023-04-30T05:29:04;102005.78;;;7.83;95.16
4972;BME280;2501;51.214;6.768;2023-04-30T05:31:32;102006.03;;;8.13;94.68
4972;BME280;2501;51.214;6.768;2023-04-30T05:34:01;102004.34;;;7.67;94.60
4972;BME280;2501;51.214;6.768;2023-04-30T05:36:29;102008.56;;;7.63;95.08
4972;BME280;2501;51.214;6.768;2023-04-30T05:38:58;102011.47;;;7.71;94.73
4972;BME280;2501;51.214;6.768;2023-04-30T05:41:26;102020.91;;;7.67;94.98
4972;BME280;2501;51.214;6.768;2023-04-30T05:43:55;102017.19;;;7.85;94.56
4972;BME280;2501;51.214;6.768;2023-04-30T05:46:26;102023.66;;;7.94;94.18
4972;BME280;2501;51.214;6.768;2023-04-30T05:48:54;102013.03;;;8.37;92.82
4972;BME280;2501;51.214;6.768;2023-04-30T05:51:23;102010.25;;;8.09;92.31
4972;BME280;2501;51.214;6.768;2023-04-30T05:53:52;102013.06;;;8.14;92.22
4972;BME280;2501;51.214;6.768;2023-04-30T05:56:21;102017.38;;;8.13;92.22
4972;BME280;2501;51.214;6.768;2023-04-30T05:58:50;102018.28;;;8.37;91.10
4972;BME280;2501;51.214;6.768;2023-04-30T06:01:19;102019.50;;;8.47;90.81
4972;BME280;2501;51.214;6.768;2023-04-30T06:03:51;102026.19;;;8.64;89.04
4972;BME280;2501;51.214;6.768;2023-04-30T06:06:20;102027.13;;;9.20;87.48
4972;BME280;2501;51.214;6.768;2023-04-30T06:08:48;102025.81;;;9.33;86.82
4972;BME280;2501;51.214;6.768;2023-04-30T06:11:17;102030.78;;;9.52;85.48
4972;BME280;2501;51.214;6.768;2023-04-30T06:13:46;102018.91;;;9.36;84.53
4972;BME280;2501;51.214;6.768;2023-04-30T06:16:15;102020.47;;;9.30;83.68
4972;BME280;2501;51.214;6.768;2023-04-30T06:18:44;102018.81;;;9.32;84.00
4972;BME280;2501;51.214;6.768;2023-04-30T06:21:15;102017.81;;;9.57;83.92
4972;BME280;2501;51.214;6.768;2023-04-30T06:23:44;102020.25;;;9.51;83.01
4972;BME280;2501;51.214;6.768;2023-04-30T06:26:13;102013.19;;;9.48;83.42
4972;BME280;2501;51.214;6.768;2023-04-30T06:28:41;102007.50;;;9.33;83.49
4972;BME280;2501;51.214;6.768;2023-04-30T06:31:10;102003.34;;;9.69;82.78
4972;BME280;2501;51.214;6.768;2023-04-30T06:33:39;102008.03;;;9.51;82.83
4972;BME280;2501;51.214;6.768;2023-04-30T06:36:08;101994.69;;;10.02;82.86
4972;BME280;2501;51.214;6.768;2023-04-30T06:38:39;102000.13;;;10.09;80.72
4972;BME280;2501;51.214;6.768;2023-04-30T06:41:08;101996.34;;;9.68;81.21
4972;BME280;2501;51.214;6.768;2023-04-30T06:43:36;102005.84;;;9.65;81.82
4972;BME280;2501;51.214;6.768;2023-04-30T06:46:05;102006.59;;;10.21;81.09
4972;BME280;2501;51.214;6.768;2023-04-30T06:48:33;102003.19;;;10.25;79.54
4972;BME280;2501;51.214;6.768;2023-04-30T06:51:02;102002.25;;;10.23;79.54
4972;BME280;2501;51.214;6.768;2023-04-30T06:53:30;101996.13;;;10.22;79.28
4972;BME280;2501;51.214;6.768;2023-04-30T06:56:01;102003.28;;;10.28;79.16
4972;BME280;2501;51.214;6.768;2023-04-30T06:58:30;102004.28;;;10.33;79.00
4972;BME280;2501;51.214;6.768;2023-04-30T07:00:59;102004.78;;;10.51;78.67
4972;BME280;2501;51.214;6.768;2023-04-30T07:03:27;102009.41;;;10.61;78.66
4972;BME280;2501;51.214;6.768;2023-04-30T07:05:56;102005.81;;;10.58;78.15
4972;BME280;2501;51.214;6.768;2023-04-30T07:08:25;102001.19;;;10.48;78.31
4972;BME280;2501;51.214;6.768;2023-04-30T07:10:53;101997.94;;;10.56;76.53
4972;BME280;2501;51.214;6.768;2023-04-30T07:13:25;101992.72;;;10.59;76.62
4972;BME280;2501;51.214;6.768;2023-04-30T07:15:53;101997.88;;;10.89;75.55
4972;BME280;2501;51.214;6.768;2023-04-30T07:18:22;101988.56;;;11.02;74.56
4972;BME280;2501;51.214;6.768;2023-04-30T07:20:51;101993.44;;;10.87;74.94
4972;BME280;2501;51.214;6.768;2023-04-30T07:23:19;101991.06;;;10.97;74.58
4972;BME280;2501;51.214;6.768;2023-04-30T07:25:48;101985.06;;;11.03;74.46
4972;BME280;2501;51.214;6.768;2023-04-30T07:28:16;101978.84;;;10.99;74.04
4972;BME280;2501;51.214;6.768;2023-04-30T07:30:47;101978.81;;;11.35;73.38
4972;BME280;2501;51.214;6.768;2023-04-30T07:33:16;101979.06;;;11.47;72.01
4972;BME280;2501;51.214;6.768;2023-04-30T07:35:45;101975.59;;;11.88;71.40
4972;BME280;2501;51.214;6.768;2023-04-30T07:38:13;101971.16;;;11.85;70.46
4972;BME280;2501;51.214;6.768;2023-04-30T07:40:43;101985.00;;;11.78;70.13
4972;BME280;2501;51.214;6.768;2023-04-30T07:43:11;101987.13;;;11.96;69.69
4972;BME280;2501;51.214;6.768;2023-04-30T07:45:40;101988.38;;;12.14;69.14
4972;BME280;2501;51.214;6.768;2023-04-30T07:48:11;101987.41;;;12.58;68.70
4972;BME280;2501;51.214;6.768;2023-04-30T07:50:40;101989.28;;;12.63;66.81
4972;BME280;2501;51.214;6.768;2023-04-30T07:53:08;101985.31;;;12.38;66.07
4972;BME280;2501;51.214;6.768;2023-04-30T07:55:36;101978.38;;;12.42;67.01
4972;BME280;2501;51.214;6.768;2023-04-30T07:58:05;101979.34;;;12.48;66.03
4972;BME280;2501;51.214;6.768;2023-04-30T08:00:33;101978.25;;;12.36;66.66
4972;BME280;2501;51.214;6.768;2023-04-30T08:03:02;101979.56;;;12.11;66.61
4972;BME280;2501;51.214;6.768;2023-04-30T08:05:33;101980.22;;;12.49;66.04
4972;BME280;2501;51.214;6.768;2023-04-30T08:08:01;101980.53;;;12.66;64.61
4972;BME280;2501;51.214;6.768;2023-04-30T08:10:30;101982.38;;;12.71;64.58
4972;BME280;2501;51.214;6.768;2023-04-30T08:12:58;101978.66;;;13.13;63.85
4972;BME280;2501;51.214;6.768;2023-04-30T08:15:27;101981.38;;;13.16;63.41
4972;BME280;2501;51.214;6.768;2023-04-30T08:17:55;101974.72;;;13.42;62.33
4972;BME280;2501;51.214;6.768;2023-04-30T08:20:24;101978.88;;;13.25;62.59
4972;BME280;2501;51.214;6.768;2023-04-30T08:22:55;101983.63;;;13.50;60.91
4972;BME280;2501;51.214;6.768;2023-04-30T08:25:24;101982.84;;;12.99;60.70
4972;BME280;2501;51.214;6.768;2023-04-30T08:27:52;101974.66;;;13.39;60.67
4972;BME280;2501;51.214;6.768;2023-04-30T08:30:21;101974.53;;;13.29;60.24
4972;BME280;2501;51.214;6.768;2023-04-30T08:32:49;101976.41;;;13.39;59.21
4972;BME280;2501;51.214;6.768;2023-04-30T08:35:20;101981.59;;;13.31;59.79
4972;BME280;2501;51.214;6.768;2023-04-30T08:37:48;101969.81;;;13.71;59.44
4972;BME280;2501;51.214;6.768;2023-04-30T08:40:20;101972.66;;;13.88;58.92
4972;BME280;2501;51.214;6.768;2023-04-30T08:42:56;101977.91;;;13.83;60.39
4972;BME280;2501;51.214;6.768;2023-04-30T08:45:27;101977.28;;;13.38;61.57
4972;BME280;2501;51.214;6.768;2023-04-30T08:47:58;101973.16;;;13.58;62.03
4972;BME280;2501;51.214;6.768;2023-04-30T08:50:27;101970.50;;;13.56;61.96
4972;BME280;2501;51.214;6.768;2023-04-30T08:52:57;101965.38;;;13.66;62.55
4972;BME280;2501;51.214;6.768;2023-04-30T08:55:29;101965.38;;;13.69;62.82
4972;BME280;2501;51.214;6.768;2023-04-30T08:57:57;101967.94;;;13.61;62.78
4972;BME280;2501;51.214;6.768;2023-04-30T09:00:26;101960.19;;;13.75;62.82
4972;BME280;2501;51.214;6.768;2023-04-30T09:02:55;101963.09;;;13.96;62.02
4972;BME280;2501;51.214;6.768;2023-04-30T09:05:23;101958.78;;;14.06;61.86
4972;BME280;2501;51.214;6.768;2023-04-30T09:07:52;101956.09;;;13.98;61.05
4972;BME280;2501;51.214;6.768;2023-04-30T09:10:21;101957.78;;;13.94;61.56
4972;BME280;2501;51.214;6.768;2023-04-30T09:13:03;101958.91;;;14.15;60.95
4972;BME280;2501;51.214;6.768;2023-04-30T09:15:33;101953.56;;;14.10;60.62
4972;BME280;2501;51.214;6.768;2023-04-30T09:18:09;101956.94;;;13.96;59.25
4972;BME280;2501;51.214;6.768;2023-04-30T09:20:53;101951.09;;;14.27;59.31
4972;BME280;2501;51.214;6.768;2023-04-30T09:23:22;101948.50;;;14.30;58.54
4972;BME280;2501;51.214;6.768;2023-04-30T09:25:51;101952.97;;;14.39;57.49
4972;BME280;2501;51.214;6.768;2023-04-30T09:28:22;101949.63;;;14.55;56.90
4972;BME280;2501;51.214;6.768;2023-04-30T09:30:55;101942.72;;;14.72;55.92
4972;BME280;2501;51.214;6.768;2023-04-30T09:33:23;101941.09;;;14.85;56.16
4972;BME280;2501;51.214;6.768;2023-04-30T09:35:52;101934.69;;;14.54;55.77
4972;BME280;2501;51.214;6.768;2023-04-30T09:38:28;101934.66;;;14.52;56.89
4972;BME280;2501;51.214;6.768;2023-04-30T09:40:57;101933.69;;;14.44;56.25
4972;BME280;2501;51.214;6.768;2023-04-30T09:43:29;101923.09;;;14.41;56.03
4972;BME280;2501;51.214;6.768;2023-04-30T09:45:58;101923.16;;;14.46;55.83
4972;BME280;2501;51.214;6.768;2023-04-30T09:48:27;101927.81;;;14.79;55.54
4972;BME280;2501;51.214;6.768;2023-04-30T09:50:55;101924.34;;;14.84;54.76
4972;BME280;2501;51.214;6.768;2023-04-30T09:53:25;101925.00;;;14.53;55.48
4972;BME280;2501;51.214;6.768;2023-04-30T09:55:57;101922.25;;;14.44;54.75
4972;BME280;2501;51.214;6.768;2023-04-30T09:58:30;101919.84;;;14.71;54.54
4972;BME280;2501;51.214;6.768;2023-04-30T10:01:04;101910.19;;;14.78;54.25
4972;BME280;2501;51.214;6.768;2023-04-30T10:03:38;101916.53;;;15.03;54.52
4972;BME280;2501;51.214;6.768;2023-04-30T10:06:11;101908.59;;;14.98;54.87
4972;BME280;2501;51.214;6.768;2023-04-30T10:08:41;101906.03;;;15.13;55.14
4972;BME280;2501;51.214;6.768;2023-04-30T10:11:13;101909.59;;;15.18;54.55
4972;BME280;2501;51.214;6.768;2023-04-30T10:13:50;101907.88;;;15.32;54.57
4972;BME280;2501;51.214;6.768;2023-04-30T10:16:38;101910.44;;;15.13;53.50
4972;BME280;2501;51.214;6.768;2023-04-30T10:19:13;101896.47;;;15.44;54.42
4972;BME280;2501;51.214;6.768;2023-04-30T10:21:42;101897.34;;;15.36;53.62
4972;BME280;2501;51.214;6.768;2023-04-30T10:24:13;101897.38;;;15.48;52.58
4972;BME280;2501;51.214;6.768;2023-04-30T10:26:44;101892.06;;;15.39;53.64
4972;BME280;2501;51.214;6.768;2023-04-30T10:29:17;101887.47;;;15.00;54.88
4972;BME280;2501;51.214;6.768;2023-04-30T10:31:47;101891.25;;;15.55;54.67
4972;BME280;2501;51.214;6.768;2023-04-30T10:34:21;101879.91;;;15.89;52.51
4972;BME280;2501;51.214;6.768;2023-04-30T10:36:55;101882.47;;;15.62;52.75
4972;BME280;2501;51.214;6.768;2023-04-30T10:39:25;101880.72;;;15.67;53.81
4972;BME280;2501;51.214;6.768;2023-04-30T10:42:01;101874.66;;;16.08;52.77
4972;BME280;2501;51.214;6.768;2023-04-30T10:44:34;101879.09;;;16.42;51.71
4972;BME280;2501;51.214;6.768;2023-04-30T10:47:05;101873.69;;;15.77;51.63
4972;BME280;2501;51.214;6.768;2023-04-30T10:49:36;101869.28;;;15.79;52.07
4972;BME280;2501;51.214;6.768;2023-04-30T10:52:10;101861.38;;;15.83;51.81
4972;BME280;2501;51.214;6.768;2023-04-30T10:54:38;101860.50;;;15.86;52.00
4972;BME280;2501;51.214;6.768;2023-04-30T10:57:12;101850.78;;;15.94;51.74
4972;BME280;2501;51.214;6.768;2023-04-30T10:59:51;101849.06;;;16.25;51.20
4972;BME280;2501;51.214;6.768;2023-04-30T11:02:19;101839.34;;;16.62;49.01
4972;BME280;2501;51.214;6.768;2023-04-30T11:05:10;101835.84;;;16.45;49.22
4972;BME280;2501;51.214;6.768;2023-04-30T11:07:46;101842.88;;;16.17;49.47
4972;BME280;2501;51.214;6.768;2023-04-30T11:10:16;101841.13;;;16.13;49.99
4972;BME280;2501;51.214;6.768;2023-04-30T11:12:48;101840.22;;;16.01;50.42
4972;BME280;2501;51.214;6.768;2023-04-30T11:15:24;101834.94;;;15.98;50.86
4972;BME280;2501;51.214;6.768;2023-04-30T11:17:55;101830.53;;;16.29;50.73
4972;BME280;2501;51.214;6.768;2023-04-30T11:20:25;101827.88;;;16.00;49.85
4972;BME280;2501;51.214;6.768;2023-04-30T11:23:09;101817.25;;;16.46;50.32
4972;BME280;2501;51.214;6.768;2023-04-30T11:25:40;101827.00;;;15.95;50.17
4972;BME280;2501;51.214;6.768;2023-04-30T11:28:13;101821.69;;;16.50;48.83
4972;BME280;2501;51.214;6.768;2023-04-30T11:30:52;101824.34;;;16.72;48.33
4972;BME280;2501;51.214;6.768;2023-04-30T11:33:22;101836.72;;;15.92;49.80
4972;BME280;2501;51.214;6.768;2023-04-30T11:35:51;101819.94;;;16.31;49.79
4972;BME280;2501;51.214;6.768;2023-04-30T11:38:21;101814.63;;;16.61;49.16
4972;BME280;2501;51.214;6.768;2023-04-30T11:40:51;101817.22;;;16.80;48.90
4972;BME280;2501;51.214;6.768;2023-04-30T11:43:21;101811.09;;;16.72;49.33
4972;BME280;2501;51.214;6.768;2023-04-30T11:46:16;101821.50;;;17.20;47.72
4972;BME280;2501;51.214;6.768;2023-04-30T11:48:45;101823.41;;;16.82;47.61
4972;BME280;2501;51.214;6.768;2023-04-30T11:51:15;101818.84;;;17.26;47.06
4972;BME280;2501;51.214;6.768;2023-04-30T11:53:45;101804.78;;;17.04;46.71
4972;BME280;2501;51.214;6.768;2023-04-30T11:56:16;101807.56;;;16.57;47.74
4972;BME280;2501;51.214;6.768;2023-04-30T11:58:46;101808.44;;;16.46;47.70
4972;BME280;2501;51.214;6.768;2023-04-30T12:01:23;101813.75;;;16.41;48.05
4972;BME280;2501;51.214;6.768;2023-04-30T12:03:55;101804.91;;;16.56;47.53
4972;BME280;2501;51.214;6.768;2023-04-30T12:06:26;101795.19;;;16.78;47.19
4972;BME280;2501;51.214;6.768;2023-04-30T12:08:57;101792.47;;;16.90;47.33
4972;BME280;2501;51.214;6.768;2023-04-30T12:11:30;101785.25;;;17.24;46.51
4972;BME280;2501;51.214;6.768;2023-04-30T12:14:00;101781.75;;;17.22;45.79
4972;BME280;2501;51.214;6.768;2023-04-30T12:16:42;101781.81;;;17.07;46.43
4972;BME280;2501;51.214;6.768;2023-04-30T12:19:13;101774.75;;;17.04;45.95
4972;BME280;2501;51.214;6.768;2023-04-30T12:21:43;101767.69;;;17.08;45.85
4972;BME280;2501;51.214;6.768;2023-04-30T12:24:13;101765.66;;;17.49;45.29
4972;BME280;2501;51.214;6.768;2023-04-30T12:26:43;101762.75;;;17.87;44.53
4972;BME280;2501;51.214;6.768;2023-04-30T12:29:15;101777.75;;;17.96;45.05
4972;BME280;2501;51.214;6.768;2023-04-30T12:31:48;101772.78;;;17.44;45.62
4972;BME280;2501;51.214;6.768;2023-04-30T12:34:17;101762.09;;;17.55;45.44
4972;BME280;2501;51.214;6.768;2023-04-30T12:36:45;101762.28;;;18.40;44.02
4972;BME280;2501;51.214;6.768;2023-04-30T12:39:14;101759.53;;;17.41;45.37
4972;BME280;2501;51.214;6.768;2023-04-30T12:41:44;101760.94;;;17.94;44.42
4972;BME280;2501;51.214;6.768;2023-04-30T12:44:18;101759.31;;;17.78;44.66
4972;BME280;2501;51.214;6.768;2023-04-30T12:46:50;101756.56;;;17.88;44.88
4972;BME280;2501;51.214;6.768;2023-04-30T12:49:24;101758.66;;;17.39;45.35
4972;BME280;2501;51.214;6.768;2023-04-30T12:51:58;101760.22;;;17.72;45.29
4972;BME280;2501;51.214;6.768;2023-04-30T12:54:28;101752.84;;;18.09;44.47
4972;BME280;2501;51.214;6.768;2023-04-30T12:57:02;101753.81;;;18.00;44.14
4972;BME280;2501;51.214;6.768;2023-04-30T12:59:32;101746.69;;;18.02;44.13
4972;BME280;2501;51.214;6.768;2023-04-30T13:02:08;101752.44;;;17.45;44.77
4972;BME280;2501;51.214;6.768;2023-04-30T13:04:37;101735.66;;;17.44;44.92
4972;BME280;2501;51.214;6.768;2023-04-30T13:07:07;101740.78;;;17.71;44.66
4972;BME280;2501;51.214;6.768;2023-04-30T13:09:37;101728.19;;;18.81;42.47
4972;BME280;2501;51.214;6.768;2023-04-30T13:12:05;101737.47;;;19.17;41.64
4972;BME280;2501;51.214;6.768;2023-04-30T13:14:34;101735.50;;;19.29;41.38
4972;BME280;2501;51.214;6.768;2023-04-30T13:17:03;101735.97;;;18.16;42.92
4972;BME280;2501;51.214;6.768;2023-04-30T13:19:35;101722.09;;;17.84;43.85
4972;BME280;2501;51.214;6.768;2023-04-30T13:22:03;101729.00;;;18.04;43.62
4972;BME280;2501;51.214;6.768;2023-04-30T13:24:32;101719.06;;;18.23;43.60
4972;BME280;2501;51.214;6.768;2023-04-30T13:27:01;101721.81;;;18.95;41.39
4972;BME280;2501;51.214;6.768;2023-04-30T13:29:29;101723.84;;;18.72;41.92
4972;BME280;2501;51.214;6.768;2023-04-30T13:31:58;101715.13;;;18.62;42.41